createdAt,value
2023-01-22T00:00:38.134Z,1.80
2023-01-22T00:03:04.954Z,1.80
2023-01-22T00:05:31.713Z,1.90
2023-01-22T00:07:58.557Z,1.60
2023-01-22T00:10:25.364Z,1.50
2023-01-22T00:12:52.148Z,1.60
2023-01-22T00:15:18.994Z,1.60
2023-01-22T00:17:45.787Z,1.60
2023-01-22T00:20:13.513Z,1.60
2023-01-22T00:22:40.352Z,1.70
2023-01-22T00:25:07.776Z,1.60
2023-01-22T00:27:34.637Z,1.70
2023-01-22T00:30:01.423Z,1.70
2023-01-22T00:32:28.239Z,1.80
2023-01-22T00:34:55.075Z,1.70
2023-01-22T00:37:21.887Z,1.60
2023-01-22T00:39:48.654Z,1.60
2023-01-22T00:42:15.646Z,1.60
2023-01-22T00:44:42.564Z,1.70
2023-01-22T00:47:09.356Z,1.70
2023-01-22T00:49:36.143Z,1.70
2023-01-22T00:52:02.914Z,1.70
2023-01-22T00:54:30.244Z,1.70
2023-01-22T00:56:57.043Z,1.70
2023-01-22T00:59:24.191Z,1.70
2023-01-22T01:01:51.064Z,1.70
2023-01-22T01:04:17.965Z,1.70
2023-01-22T01:06:44.931Z,1.80
2023-01-22T01:09:11.942Z,1.80
2023-01-22T01:11:38.844Z,1.70
2023-01-22T01:14:05.753Z,1.70
2023-01-22T01:16:33.445Z,1.70
2023-01-22T01:19:00.255Z,1.80
2023-01-22T01:21:27.580Z,1.80
2023-01-22T01:23:56.108Z,1.70
2023-01-22T01:26:23.127Z,1.70
2023-01-22T01:28:52.466Z,1.80
2023-01-22T01:31:20.956Z,1.70
2023-01-22T01:33:47.990Z,1.80
2023-01-22T01:36:35.306Z,1.80
2023-01-22T01:39:06.782Z,1.70
2023-01-22T01:41:33.643Z,1.60
2023-01-22T01:44:18.269Z,1.60
2023-01-22T01:46:52.837Z,1.70
2023-01-22T01:49:49.236Z,1.80
2023-01-22T01:52:17.070Z,1.80
2023-01-22T01:54:50.516Z,1.90
2023-01-22T01:57:22.193Z,1.90
2023-01-22T01:59:51.540Z,1.90
2023-01-22T02:02:20.523Z,1.90
2023-01-22T02:04:49.294Z,1.80
2023-01-22T02:07:16.208Z,1.80
2023-01-22T02:09:43.136Z,1.90
2023-01-22T02:12:10.204Z,1.90
2023-01-22T02:14:41.261Z,1.80
2023-01-22T02:17:11.674Z,1.80
2023-01-22T02:19:40.045Z,1.70
2023-01-22T02:22:37.428Z,1.70
2023-01-22T02:25:04.793Z,1.80
2023-01-22T02:27:31.562Z,1.80
2023-01-22T02:29:58.348Z,1.80
2023-01-22T02:32:25.230Z,1.80
2023-01-22T02:34:52.040Z,1.80
2023-01-22T02:37:18.943Z,1.80
2023-01-22T02:39:45.892Z,1.90
2023-01-22T02:42:12.994Z,1.80
2023-01-22T02:44:39.876Z,1.80
2023-01-22T02:47:07.068Z,1.80
2023-01-22T02:49:33.879Z,1.80
2023-01-22T02:52:00.880Z,1.80
2023-01-22T02:54:27.714Z,1.80
2023-01-22T02:56:56.045Z,1.80
2023-01-22T02:59:22.896Z,1.90
2023-01-22T03:01:49.749Z,1.80
2023-01-22T03:04:16.589Z,1.80
2023-01-22T03:06:45.824Z,1.80
2023-01-22T03:09:15.659Z,1.80
2023-01-22T03:11:46.132Z,1.80
2023-01-22T03:14:32.288Z,1.80
2023-01-22T03:17:18.206Z,1.80
2023-01-22T03:20:03.787Z,1.80
2023-01-22T03:22:30.867Z,1.90
2023-01-22T03:24:59.012Z,1.80
2023-01-22T03:27:27.841Z,1.90
2023-01-22T03:29:54.829Z,1.80
2023-01-22T03:32:22.461Z,1.90
2023-01-22T03:34:49.399Z,1.90
2023-01-22T03:37:16.437Z,1.80
2023-01-22T03:39:43.333Z,1.80
2023-01-22T03:42:10.239Z,1.80
2023-01-22T03:44:37.061Z,1.80
2023-01-22T03:47:03.947Z,1.80
2023-01-22T03:49:30.787Z,1.80
2023-01-22T03:51:57.657Z,1.80
2023-01-22T03:54:24.528Z,1.70
2023-01-22T03:56:51.347Z,1.70
2023-01-22T03:59:24.321Z,1.70
2023-01-22T04:01:52.578Z,1.70
2023-01-22T04:04:19.673Z,1.80
2023-01-22T04:06:46.431Z,1.80
2023-01-22T04:09:14.228Z,1.80
2023-01-22T04:11:41.013Z,1.80
2023-01-22T04:14:07.806Z,1.80
2023-01-22T04:16:34.792Z,1.80
2023-01-22T04:19:01.587Z,1.80
2023-01-22T04:21:28.387Z,1.80
2023-01-22T04:23:56.709Z,1.80
2023-01-22T04:26:23.624Z,1.80
2023-01-22T04:28:50.452Z,1.80
2023-01-22T04:31:17.285Z,1.80
2023-01-22T04:33:44.359Z,1.80
2023-01-22T04:36:11.214Z,1.90
2023-01-22T04:38:38.143Z,1.80
2023-01-22T04:41:05.067Z,1.80
2023-01-22T04:43:31.831Z,1.80
2023-01-22T04:45:58.731Z,1.90
2023-01-22T04:48:25.676Z,1.80
2023-01-22T04:50:52.496Z,1.80
2023-01-22T04:53:19.357Z,1.80
2023-01-22T04:55:46.186Z,1.90
2023-01-22T04:58:13.020Z,1.90
2023-01-22T05:00:40.063Z,1.90
2023-01-22T05:03:06.887Z,1.90
2023-01-22T05:05:34.294Z,1.90
2023-01-22T05:08:01.623Z,1.90
2023-01-22T05:10:28.901Z,1.90
2023-01-22T05:12:55.835Z,1.90
2023-01-22T05:15:24.842Z,1.90
2023-01-22T05:17:53.099Z,1.90
2023-01-22T05:20:20.723Z,1.90
2023-01-22T05:22:47.774Z,1.90
2023-01-22T05:25:14.691Z,2.00
2023-01-22T05:27:41.513Z,1.90
2023-01-22T05:30:09.103Z,2.00
2023-01-22T05:32:36.195Z,1.90
2023-01-22T05:35:04.515Z,1.90
2023-01-22T05:37:32.464Z,1.90
2023-01-22T05:39:59.277Z,2.00
2023-01-22T05:42:26.146Z,2.00
2023-01-22T05:44:52.953Z,2.00
2023-01-22T05:47:19.888Z,2.10
2023-01-22T05:49:46.822Z,2.10
2023-01-22T05:52:13.641Z,2.00
2023-01-22T05:54:40.708Z,1.90
2023-01-22T05:57:08.060Z,1.90
2023-01-22T05:59:35.033Z,1.90
2023-01-22T06:02:03.466Z,1.90
2023-01-22T06:04:30.329Z,2.00
2023-01-22T06:06:57.217Z,2.00
2023-01-22T06:09:24.266Z,2.00
2023-01-22T06:11:51.262Z,2.00
2023-01-22T06:14:18.263Z,2.10
2023-01-22T06:16:45.073Z,2.10
2023-01-22T06:19:12.692Z,2.10
2023-01-22T06:21:40.248Z,2.10
2023-01-22T06:24:07.387Z,2.10
2023-01-22T06:26:34.239Z,2.10
2023-01-22T06:29:01.279Z,2.10
2023-01-22T06:31:28.236Z,2.00
2023-01-22T06:33:55.190Z,2.00
2023-01-22T06:36:22.147Z,2.10
2023-01-22T06:38:49.193Z,2.00
2023-01-22T06:41:15.972Z,2.00
2023-01-22T06:43:42.812Z,2.00
2023-01-22T06:46:09.665Z,2.10
2023-01-22T06:48:36.597Z,2.10
2023-01-22T06:51:03.627Z,2.10
2023-01-22T06:53:30.627Z,2.10
2023-01-22T06:55:59.785Z,2.10
2023-01-22T06:58:26.555Z,2.20
2023-01-22T07:00:53.363Z,2.30
2023-01-22T07:03:20.402Z,2.30
2023-01-22T07:05:55.307Z,2.20
2023-01-22T07:08:22.068Z,2.20
2023-01-22T07:10:48.847Z,2.10
2023-01-22T07:13:16.099Z,2.10
2023-01-22T07:15:43.296Z,2.10
2023-01-22T07:18:10.983Z,2.10
2023-01-22T07:20:37.828Z,2.20
2023-01-22T07:23:04.601Z,2.30
2023-01-22T07:25:31.372Z,2.30
2023-01-22T07:28:02.654Z,2.30
2023-01-22T07:30:30.463Z,2.40
2023-01-22T07:33:04.358Z,2.40
2023-01-22T07:35:31.364Z,2.40
2023-01-22T07:38:00.305Z,2.30
2023-01-22T07:40:28.155Z,2.30
2023-01-22T07:42:56.050Z,2.30
2023-01-22T07:45:24.612Z,2.30
2023-01-22T07:47:54.534Z,2.40
2023-01-22T07:50:26.366Z,2.40
2023-01-22T07:52:53.349Z,2.50
2023-01-22T07:55:20.322Z,2.50
2023-01-22T07:57:47.158Z,2.40
2023-01-22T08:00:16.000Z,2.30
2023-01-22T08:02:43.338Z,2.30
2023-01-22T08:05:13.631Z,2.40
2023-01-22T08:07:40.471Z,2.50
2023-01-22T08:10:09.101Z,2.50
2023-01-22T08:12:41.354Z,2.50
2023-01-22T08:15:09.230Z,2.50
2023-01-22T08:17:36.122Z,2.50
2023-01-22T08:20:04.308Z,2.50
2023-01-22T08:22:31.110Z,2.60
2023-01-22T08:24:57.933Z,2.50
2023-01-22T08:27:24.772Z,2.60
2023-01-22T08:29:51.642Z,2.60
2023-01-22T08:32:21.766Z,2.60
2023-01-22T08:34:48.712Z,2.60
2023-01-22T08:37:15.512Z,2.60
2023-01-22T08:39:42.311Z,2.60
2023-01-22T08:42:09.082Z,2.60
2023-01-22T08:44:35.858Z,2.70
2023-01-22T08:47:02.628Z,2.60
2023-01-22T08:49:30.953Z,2.60
2023-01-22T08:51:57.795Z,2.80
2023-01-22T08:54:26.242Z,2.80
2023-01-22T08:56:53.127Z,2.70
2023-01-22T08:59:20.052Z,2.60
2023-01-22T09:01:46.863Z,2.70
2023-01-22T09:04:13.777Z,2.80
2023-01-22T09:06:40.788Z,2.80
2023-01-22T09:09:07.992Z,2.80
2023-01-22T09:11:34.909Z,2.80
2023-01-22T09:14:02.669Z,2.70
2023-01-22T09:16:33.364Z,2.80
2023-01-22T09:19:00.222Z,2.90
2023-01-22T09:21:27.066Z,2.80
2023-01-22T09:23:53.895Z,2.90
2023-01-22T09:26:21.513Z,2.90
2023-01-22T09:28:48.309Z,3.00
2023-01-22T09:31:15.372Z,3.10
2023-01-22T09:33:42.205Z,3.00
2023-01-22T09:36:14.007Z,3.10
2023-01-22T09:38:41.839Z,3.10
2023-01-22T09:41:47.288Z,3.20
2023-01-22T09:44:19.574Z,3.20
2023-01-22T09:46:53.581Z,3.20
2023-01-22T09:49:24.870Z,3.20
2023-01-22T09:52:00.655Z,3.20
2023-01-22T09:54:29.334Z,3.30
2023-01-22T09:56:59.393Z,3.40
2023-01-22T09:59:45.255Z,3.40
2023-01-22T10:02:24.105Z,3.40
2023-01-22T10:04:57.252Z,3.40
2023-01-22T10:07:35.300Z,3.40
2023-01-22T10:10:16.843Z,3.50
2023-01-22T10:12:44.624Z,3.60
2023-01-22T10:15:17.318Z,3.60
2023-01-22T10:17:44.796Z,3.60
2023-01-22T10:20:13.783Z,3.60
2023-01-22T10:22:40.605Z,3.60
2023-01-22T10:25:13.836Z,3.50
2023-01-22T10:27:41.067Z,3.70
2023-01-22T10:30:22.457Z,3.60
2023-01-22T10:33:04.001Z,3.60
2023-01-22T10:35:32.297Z,3.70
2023-01-22T10:38:00.589Z,3.70
2023-01-22T10:40:41.045Z,3.70
2023-01-22T10:43:12.689Z,3.70
2023-01-22T10:45:53.171Z,3.60
2023-01-22T10:48:21.185Z,3.60
2023-01-22T10:51:13.075Z,3.70
2023-01-22T10:53:50.060Z,3.70
2023-01-22T10:56:32.432Z,3.70
2023-01-22T10:59:03.361Z,3.80
2023-01-22T11:01:35.246Z,3.80
2023-01-22T11:04:23.109Z,3.70
2023-01-22T11:07:00.213Z,3.80
2023-01-22T11:09:33.404Z,3.90
2023-01-22T11:12:17.829Z,4.00
2023-01-22T11:14:47.408Z,3.90
2023-01-22T11:17:27.945Z,3.90
2023-01-22T11:20:01.152Z,3.90
2023-01-22T11:22:33.560Z,3.90
2023-01-22T11:25:00.579Z,3.90
2023-01-22T11:27:39.267Z,3.90
2023-01-22T11:30:40.478Z,4.00
2023-01-22T11:33:31.500Z,4.10
2023-01-22T11:36:08.200Z,4.10
2023-01-22T11:39:19.197Z,4.10
2023-01-22T11:42:18.309Z,4.10
2023-01-22T11:45:23.452Z,4.00
2023-01-22T11:47:57.847Z,4.00
2023-01-22T11:50:51.890Z,3.90
2023-01-22T11:53:24.672Z,4.00
2023-01-22T11:56:12.607Z,4.00
2023-01-22T11:59:14.963Z,4.00
2023-01-22T12:01:49.677Z,4.00
2023-01-22T12:04:25.454Z,4.00
2023-01-22T12:07:11.781Z,4.00
2023-01-22T12:09:59.976Z,4.00
2023-01-22T12:12:26.763Z,4.00
2023-01-22T12:15:00.962Z,4.00
2023-01-22T12:17:39.912Z,4.00
2023-01-22T12:20:21.904Z,4.00
2023-01-22T12:23:04.054Z,4.10
2023-01-22T12:25:33.862Z,4.10
2023-01-22T12:28:24.522Z,4.10
2023-01-22T12:30:56.729Z,4.10
2023-01-22T12:33:27.712Z,4.10
2023-01-22T12:35:58.049Z,4.00
2023-01-22T12:38:41.603Z,4.10
2023-01-22T12:41:29.929Z,4.10
2023-01-22T12:44:06.826Z,4.20
2023-01-22T12:46:42.774Z,4.20
2023-01-22T12:49:13.131Z,4.30
2023-01-22T12:51:51.760Z,4.30
2023-01-22T12:54:27.692Z,4.30
2023-01-22T12:57:20.729Z,4.40
2023-01-22T12:59:49.955Z,4.20
2023-01-22T13:02:38.889Z,4.20
2023-01-22T13:05:30.615Z,4.20
2023-01-22T13:08:21.695Z,4.20
2023-01-22T13:11:00.116Z,4.20
2023-01-22T13:13:43.387Z,4.20
2023-01-22T13:16:31.426Z,4.20
2023-01-22T13:19:00.719Z,4.20
2023-01-22T13:21:33.740Z,4.20
2023-01-22T13:24:11.622Z,4.20
2023-01-22T13:26:39.216Z,4.20
2023-01-22T13:29:20.043Z,4.30
2023-01-22T13:32:03.018Z,4.20
2023-01-22T13:34:30.719Z,4.10
2023-01-22T13:36:58.448Z,4.10
2023-01-22T13:39:27.040Z,4.10
2023-01-22T13:41:56.830Z,4.10
2023-01-22T13:44:27.149Z,4.30
2023-01-22T13:46:54.377Z,4.10
2023-01-22T13:49:25.177Z,4.10
2023-01-22T13:51:52.766Z,4.10
2023-01-22T13:54:32.238Z,4.00
2023-01-22T13:56:59.114Z,4.00
2023-01-22T13:59:31.085Z,4.00
2023-01-22T14:01:57.973Z,4.10
2023-01-22T14:04:31.875Z,4.10
2023-01-22T14:06:58.770Z,4.10
2023-01-22T14:09:37.502Z,4.20
2023-01-22T14:12:25.269Z,4.20
2023-01-22T14:14:52.915Z,4.20
2023-01-22T14:17:20.503Z,4.20
2023-01-22T14:19:47.405Z,4.20
2023-01-22T14:22:14.233Z,4.20
2023-01-22T14:24:41.175Z,4.30
2023-01-22T14:27:08.080Z,4.30
2023-01-22T14:29:35.059Z,4.30
2023-01-22T14:32:02.105Z,4.30
2023-01-22T14:34:29.118Z,4.30
2023-01-22T14:36:56.145Z,4.30
2023-01-22T14:39:23.268Z,4.30
2023-01-22T14:41:50.879Z,4.30
2023-01-22T14:44:18.273Z,4.30
2023-01-22T14:46:45.133Z,4.30
2023-01-22T14:49:12.000Z,4.30
2023-01-22T14:51:38.798Z,4.30
2023-01-22T14:54:06.697Z,4.30
2023-01-22T14:56:33.518Z,4.20
2023-01-22T14:59:00.402Z,4.20
2023-01-22T15:01:27.173Z,4.20
2023-01-22T15:03:54.223Z,4.30
2023-01-22T15:06:21.117Z,4.30
2023-01-22T15:08:47.920Z,4.30
2023-01-22T15:11:14.741Z,4.30
2023-01-22T15:13:41.567Z,4.40
2023-01-22T15:16:10.548Z,4.30
2023-01-22T15:18:38.444Z,4.40
2023-01-22T15:21:06.314Z,4.40
2023-01-22T15:23:34.347Z,4.40
2023-01-22T15:26:04.754Z,4.40
2023-01-22T15:28:31.739Z,4.40
2023-01-22T15:31:07.464Z,4.40
2023-01-22T15:33:35.771Z,4.40
2023-01-22T15:36:03.350Z,4.40
2023-01-22T15:38:30.314Z,4.40
2023-01-22T15:41:18.148Z,4.50
2023-01-22T15:43:46.266Z,4.40
2023-01-22T15:46:13.089Z,4.40
2023-01-22T15:48:39.927Z,4.60
2023-01-22T15:51:08.361Z,4.50
2023-01-22T15:53:35.618Z,4.50
2023-01-22T15:56:02.844Z,4.50
2023-01-22T15:58:31.777Z,4.40
2023-01-22T16:00:58.832Z,4.40
2023-01-22T16:03:25.705Z,4.40
2023-01-22T16:05:52.533Z,4.40
2023-01-22T16:08:19.353Z,4.50
2023-01-22T16:10:46.133Z,4.50
2023-01-22T16:13:12.990Z,4.50
2023-01-22T16:15:39.761Z,4.40
2023-01-22T16:18:06.561Z,4.50
2023-01-22T16:20:33.480Z,4.40
2023-01-22T16:23:00.308Z,4.50
2023-01-22T16:25:27.146Z,4.40
2023-01-22T16:27:53.997Z,4.40
2023-01-22T16:30:21.002Z,4.50
2023-01-22T16:32:48.003Z,4.50
2023-01-22T16:35:14.900Z,4.50
2023-01-22T16:37:44.746Z,4.50
2023-01-22T16:40:12.746Z,4.50
2023-01-22T16:42:39.564Z,4.50
2023-01-22T16:45:06.834Z,4.40
2023-01-22T16:47:33.690Z,4.40
2023-01-22T16:50:00.587Z,4.50
2023-01-22T16:52:27.418Z,4.50
2023-01-22T16:54:54.251Z,4.40
2023-01-22T16:57:21.087Z,4.50
2023-01-22T16:59:47.941Z,4.50
2023-01-22T17:02:16.256Z,4.50
2023-01-22T17:04:43.356Z,4.50
2023-01-22T17:07:20.465Z,4.60
2023-01-22T17:09:54.557Z,4.50
2023-01-22T17:12:21.331Z,4.40
2023-01-22T17:14:52.569Z,4.50
2023-01-22T17:17:19.457Z,4.40
2023-01-22T17:19:46.309Z,4.50
2023-01-22T17:22:13.339Z,4.40
2023-01-22T17:24:41.487Z,4.50
2023-01-22T17:27:08.697Z,4.40
2023-01-22T17:29:36.297Z,4.40
2023-01-22T17:32:03.867Z,4.40
2023-01-22T17:34:30.913Z,4.40
2023-01-22T17:36:57.721Z,4.40
2023-01-22T17:39:24.794Z,4.40
2023-01-22T17:41:51.622Z,4.40
2023-01-22T17:44:18.457Z,4.40
2023-01-22T17:46:45.310Z,4.40
2023-01-22T17:49:12.104Z,4.40
2023-01-22T17:51:39.051Z,4.50
2023-01-22T17:54:06.234Z,4.40
2023-01-22T17:56:37.087Z,4.40
2023-01-22T17:59:06.154Z,4.40
2023-01-22T18:01:35.780Z,4.30
2023-01-22T18:04:06.134Z,4.40
2023-01-22T18:06:33.839Z,4.40
2023-01-22T18:09:00.875Z,4.40
2023-01-22T18:11:29.916Z,4.30
2023-01-22T18:14:21.581Z,4.40
2023-01-22T18:16:49.777Z,4.40
2023-01-22T18:19:18.621Z,4.40
2023-01-22T18:21:45.596Z,4.40
2023-01-22T18:24:13.688Z,4.40
2023-01-22T18:26:40.982Z,4.40
2023-01-22T18:29:08.752Z,4.40
2023-01-22T18:31:35.759Z,4.40
2023-01-22T18:34:04.850Z,4.40
2023-01-22T18:36:38.105Z,4.30
2023-01-22T18:39:08.611Z,4.20
2023-01-22T18:41:36.655Z,4.20
2023-01-22T18:44:04.060Z,4.20
2023-01-22T18:46:33.833Z,4.20
2023-01-22T18:49:06.477Z,4.30
2023-01-22T18:51:34.081Z,4.40
2023-01-22T18:54:02.248Z,4.30
2023-01-22T18:56:29.111Z,4.30
2023-01-22T18:58:59.376Z,4.30
2023-01-22T19:01:32.260Z,4.30
2023-01-22T19:04:02.741Z,4.30
2023-01-22T19:06:34.192Z,4.30
2023-01-22T19:09:09.797Z,4.30
2023-01-22T19:11:40.595Z,4.30
2023-01-22T19:14:09.116Z,4.30
2023-01-22T19:16:38.230Z,4.30
2023-01-22T19:19:13.160Z,4.20
2023-01-22T19:21:43.540Z,4.30
2023-01-22T19:24:11.543Z,4.30
2023-01-22T19:26:38.506Z,4.30
2023-01-22T19:29:13.241Z,4.30
2023-01-22T19:31:42.693Z,4.10
2023-01-22T19:34:12.423Z,4.20
2023-01-22T19:36:39.852Z,4.20
2023-01-22T19:39:11.483Z,4.20
2023-01-22T19:41:39.724Z,4.20
2023-01-22T19:44:07.437Z,4.30
2023-01-22T19:46:34.891Z,4.30
2023-01-22T19:49:01.813Z,4.30
2023-01-22T19:51:30.689Z,4.30
2023-01-22T19:53:59.962Z,4.10
2023-01-22T19:56:29.449Z,4.10
2023-01-22T19:59:02.701Z,4.20
2023-01-22T20:01:32.120Z,4.20
2023-01-22T20:03:59.463Z,4.20
2023-01-22T20:06:26.708Z,4.10
2023-01-22T20:08:56.308Z,4.10
2023-01-22T20:11:24.248Z,4.30
2023-01-22T20:13:51.147Z,4.30
2023-01-22T20:16:18.401Z,4.30
2023-01-22T20:18:45.540Z,4.20
2023-01-22T20:21:13.276Z,4.20
2023-01-22T20:23:40.325Z,4.30
2023-01-22T20:26:08.521Z,4.20
2023-01-22T20:28:36.391Z,4.20
2023-01-22T20:31:06.370Z,4.10
2023-01-22T20:33:33.766Z,4.20
2023-01-22T20:36:03.431Z,4.10
2023-01-22T20:38:30.553Z,4.10
2023-01-22T20:41:02.302Z,4.10
2023-01-22T20:43:29.224Z,4.20
2023-01-22T20:46:01.928Z,4.20
2023-01-22T20:48:30.302Z,4.30
2023-01-22T20:50:57.414Z,4.10
2023-01-22T20:53:24.985Z,4.20
2023-01-22T20:56:02.857Z,4.20
2023-01-22T20:58:29.986Z,4.10
2023-01-22T21:01:04.741Z,4.10
2023-01-22T21:03:31.801Z,4.00
2023-01-22T21:06:05.787Z,4.10
2023-01-22T21:08:32.852Z,4.20
2023-01-22T21:11:05.046Z,4.10
2023-01-22T21:13:32.012Z,4.00
2023-01-22T21:16:13.499Z,3.90
2023-01-22T21:18:43.733Z,3.90
2023-01-22T21:21:19.952Z,3.90
2023-01-22T21:23:48.786Z,3.90
2023-01-22T21:26:19.158Z,3.80
2023-01-22T21:28:47.887Z,3.90
2023-01-22T21:31:17.369Z,3.80
2023-01-22T21:33:45.408Z,3.90
2023-01-22T21:36:13.432Z,3.90
2023-01-22T21:38:40.301Z,4.00
2023-01-22T21:41:18.165Z,3.90
2023-01-22T21:44:04.972Z,4.00
2023-01-22T21:46:46.876Z,3.90
2023-01-22T21:49:16.343Z,3.90
2023-01-22T21:51:55.638Z,3.80
2023-01-22T21:54:33.890Z,3.80
2023-01-22T21:57:00.818Z,3.80
2023-01-22T21:59:27.664Z,3.80
2023-01-22T22:01:54.704Z,3.80
2023-01-22T22:04:23.848Z,3.80
2023-01-22T22:06:50.725Z,3.90
2023-01-22T22:09:23.817Z,3.80
2023-01-22T22:11:51.777Z,3.80
2023-01-22T22:14:22.156Z,3.80
2023-01-22T22:16:49.993Z,3.80
2023-01-22T22:19:18.583Z,3.70
2023-01-22T22:21:45.619Z,3.70
2023-01-22T22:24:13.156Z,3.80
2023-01-22T22:26:40.483Z,3.70
2023-01-22T22:29:08.455Z,3.70
2023-01-22T22:31:36.291Z,3.60
2023-01-22T22:34:03.274Z,3.60
2023-01-22T22:36:32.111Z,3.70
2023-01-22T22:39:00.548Z,3.60
2023-01-22T22:41:30.550Z,3.70
2023-01-22T22:43:57.731Z,3.70
2023-01-22T22:46:27.447Z,3.70
2023-01-22T22:48:56.669Z,3.70
2023-01-22T22:51:29.175Z,3.70
2023-01-22T22:54:01.893Z,3.70
2023-01-22T22:56:29.529Z,3.70
2023-01-22T22:58:57.681Z,3.80
2023-01-22T23:01:25.883Z,3.60
2023-01-22T23:03:53.712Z,3.70
2023-01-22T23:06:29.460Z,3.70
2023-01-22T23:08:57.368Z,3.50
2023-01-22T23:11:33.012Z,3.60
2023-01-22T23:14:01.544Z,3.50
2023-01-22T23:16:34.000Z,3.50
2023-01-22T23:19:03.275Z,3.50
2023-01-22T23:21:30.449Z,3.50
2023-01-22T23:23:57.424Z,3.60
2023-01-22T23:26:29.981Z,3.50
2023-01-22T23:29:00.307Z,3.60
2023-01-22T23:31:28.169Z,3.60
2023-01-22T23:33:56.197Z,3.50
2023-01-22T23:36:24.482Z,3.60
2023-01-22T23:38:51.720Z,3.60
2023-01-22T23:41:21.048Z,3.50
2023-01-22T23:43:47.872Z,3.50
2023-01-22T23:46:18.937Z,3.40
2023-01-22T23:48:45.894Z,3.40
2023-01-22T23:51:14.585Z,3.40
2023-01-22T23:53:43.863Z,3.50
2023-01-22T23:56:12.166Z,3.50
2023-01-22T23:58:39.692Z,3.50
